Terminal Aerodrome Forecast
Issued by NWS

Home | Current Version | Previous Version | Text Only | Print | Product List | Glossary On
Versions: 1 2 3 4 5 6 7 8 9 10 11 12 13 14 15 16 17 18 19 20 21 22 23 24 25 26 27 28 29 30
421
FTUS42 KCAE 301915 AAD
TAFDNL
TAF AMD
KDNL 301915Z 3019/3118 24008KT P6SM SCT050 BKN100
      TEMPO 3019/3020 1 1/2SM TSRA SCT040CB BKN050
     FM310000 23005KT P6SM SCT100
     FM311400 24006KT P6SM SCT040 BKN250=

USA.gov is the U.S. government's official web portal to all federal, state and local government web resources and services.